sensor_id;sensor_type;location;lat;lon;timestamp;temperature;humidity
32811;DHT22;65470;47.324;8.548;2023-05-07T00:00:25;16.00;99.90
32811;DHT22;65470;47.324;8.548;2023-05-07T00:02:51;15.90;99.90
32811;DHT22;65470;47.324;8.548;2023-05-07T00:05:17;15.90;99.90
32811;DHT22;65470;47.324;8.548;2023-05-07T00:07:43;15.80;99.90
32811;DHT22;65470;47.324;8.548;2023-05-07T00:10:10;15.80;99.90
32811;DHT22;65470;47.324;8.548;2023-05-07T00:12:37;15.80;99.90
32811;DHT22;65470;47.324;8.548;2023-05-07T00:15:03;15.80;99.90
32811;DHT22;65470;47.324;8.548;2023-05-07T00:17:30;15.80;99.90
32811;DHT22;65470;47.324;8.548;2023-05-07T00:19:56;15.80;99.90
32811;DHT22;65470;47.324;8.548;2023-05-07T00:22:22;15.80;99.90
32811;DHT22;65470;47.324;8.548;2023-05-07T00:24:47;15.80;99.90
32811;DHT22;65470;47.324;8.548;2023-05-07T00:27:13;15.80;99.90
32811;DHT22;65470;47.324;8.548;2023-05-07T00:29:39;15.80;99.90
32811;DHT22;65470;47.324;8.548;2023-05-07T00:32:04;15.70;99.90
32811;DHT22;65470;47.324;8.548;2023-05-07T00:34:31;15.60;99.90
32811;DHT22;65470;47.324;8.548;2023-05-07T00:36:57;15.60;99.90
32811;DHT22;65470;47.324;8.548;2023-05-07T00:39:22;15.50;99.90
32811;DHT22;65470;47.324;8.548;2023-05-07T00:41:48;15.40;99.90
32811;DHT22;65470;47.324;8.548;2023-05-07T00:44:14;15.40;99.90
32811;DHT22;65470;47.324;8.548;2023-05-07T00:46:40;15.40;99.90
32811;DHT22;65470;47.324;8.548;2023-05-07T00:49:06;15.40;99.90
32811;DHT22;65470;47.324;8.548;2023-05-07T00:51:32;15.40;99.90
32811;DHT22;65470;47.324;8.548;2023-05-07T00:54:00;15.40;99.90
32811;DHT22;65470;47.324;8.548;2023-05-07T00:56:27;15.30;99.90
32811;DHT22;65470;47.324;8.548;2023-05-07T00:58:53;15.40;99.90
32811;DHT22;65470;47.324;8.548;2023-05-07T01:01:18;15.40;99.90
32811;DHT22;65470;47.324;8.548;2023-05-07T01:03:44;15.40;99.90
32811;DHT22;65470;47.324;8.548;2023-05-07T01:06:10;15.40;99.90
32811;DHT22;65470;47.324;8.548;2023-05-07T01:08:41;15.40;99.90
32811;DHT22;65470;47.324;8.548;2023-05-07T01:11:08;15.40;99.90
32811;DHT22;65470;47.324;8.548;2023-05-07T01:13:35;15.40;99.90
32811;DHT22;65470;47.324;8.548;2023-05-07T01:16:02;15.30;99.90
32811;DHT22;65470;47.324;8.548;2023-05-07T01:18:28;15.30;99.90
32811;DHT22;65470;47.324;8.548;2023-05-07T01:20:57;15.30;99.90
32811;DHT22;65470;47.324;8.548;2023-05-07T01:23:23;15.20;99.90
32811;DHT22;65470;47.324;8.548;2023-05-07T01:25:53;15.20;99.90
32811;DHT22;65470;47.324;8.548;2023-05-07T01:28:19;15.10;99.90
32811;DHT22;65470;47.324;8.548;2023-05-07T01:30:48;15.10;99.90
32811;DHT22;65470;47.324;8.548;2023-05-07T01:33:19;15.10;99.90
32811;DHT22;65470;47.324;8.548;2023-05-07T01:35:48;15.10;99.90
32811;DHT22;65470;47.324;8.548;2023-05-07T01:38:16;15.00;99.90
32811;DHT22;65470;47.324;8.548;2023-05-07T01:40:43;15.00;99.90
32811;DHT22;65470;47.324;8.548;2023-05-07T01:43:09;15.00;99.90
32811;DHT22;65470;47.324;8.548;2023-05-07T01:45:36;14.90;99.90
32811;DHT22;65470;47.324;8.548;2023-05-07T01:48:02;14.90;99.90
32811;DHT22;65470;47.324;8.548;2023-05-07T01:50:29;14.80;99.90
32811;DHT22;65470;47.324;8.548;2023-05-07T01:52:55;14.80;99.90
32811;DHT22;65470;47.324;8.548;2023-05-07T01:55:21;14.80;99.90
32811;DHT22;65470;47.324;8.548;2023-05-07T01:57:46;14.70;99.90
32811;DHT22;65470;47.324;8.548;2023-05-07T02:03:34;14.70;99.90
32811;DHT22;65470;47.324;8.548;2023-05-07T02:06:00;14.60;99.90
32811;DHT22;65470;47.324;8.548;2023-05-07T02:08:25;14.60;99.90
32811;DHT22;65470;47.324;8.548;2023-05-07T02:10:51;14.50;99.90
32811;DHT22;65470;47.324;8.548;2023-05-07T02:13:17;14.50;99.90
32811;DHT22;65470;47.324;8.548;2023-05-07T02:15:42;14.50;99.90
32811;DHT22;65470;47.324;8.548;2023-05-07T02:18:09;14.50;99.90
32811;DHT22;65470;47.324;8.548;2023-05-07T02:20:35;14.50;99.90
32811;DHT22;65470;47.324;8.548;2023-05-07T02:23:01;14.50;99.90
32811;DHT22;65470;47.324;8.548;2023-05-07T02:25:26;14.50;99.90
32811;DHT22;65470;47.324;8.548;2023-05-07T02:27:52;14.50;99.90
32811;DHT22;65470;47.324;8.548;2023-05-07T02:30:18;14.50;99.90
32811;DHT22;65470;47.324;8.548;2023-05-07T02:32:43;14.50;99.90
32811;DHT22;65470;47.324;8.548;2023-05-07T02:35:09;14.50;99.90
32811;DHT22;65470;47.324;8.548;2023-05-07T02:37:35;14.50;99.90
32811;DHT22;65470;47.324;8.548;2023-05-07T02:40:01;14.40;99.90
32811;DHT22;65470;47.324;8.548;2023-05-07T02:42:26;14.50;99.90
32811;DHT22;65470;47.324;8.548;2023-05-07T02:44:52;14.40;99.90
32811;DHT22;65470;47.324;8.548;2023-05-07T02:47:18;14.50;99.90
32811;DHT22;65470;47.324;8.548;2023-05-07T02:49:43;14.40;99.90
32811;DHT22;65470;47.324;8.548;2023-05-07T02:52:09;14.40;99.90
32811;DHT22;65470;47.324;8.548;2023-05-07T02:54:34;14.30;99.90
32811;DHT22;65470;47.324;8.548;2023-05-07T02:57:00;14.30;99.90
32811;DHT22;65470;47.324;8.548;2023-05-07T02:59:26;14.20;99.90
32811;DHT22;65470;47.324;8.548;2023-05-07T03:01:52;14.30;99.90
32811;DHT22;65470;47.324;8.548;2023-05-07T03:04:17;14.30;99.90
32811;DHT22;65470;47.324;8.548;2023-05-07T03:06:43;14.30;99.90
32811;DHT22;65470;47.324;8.548;2023-05-07T03:09:09;14.30;99.90
32811;DHT22;65470;47.324;8.548;2023-05-07T03:11:34;14.20;99.90
32811;DHT22;65470;47.324;8.548;2023-05-07T03:14:01;14.10;99.90
32811;DHT22;65470;47.324;8.548;2023-05-07T03:16:27;14.10;99.90
32811;DHT22;65470;47.324;8.548;2023-05-07T03:18:52;14.10;99.90
32811;DHT22;65470;47.324;8.548;2023-05-07T03:21:18;14.10;99.90
32811;DHT22;65470;47.324;8.548;2023-05-07T03:23:44;14.10;99.90
32811;DHT22;65470;47.324;8.548;2023-05-07T03:26:09;14.10;99.90
32811;DHT22;65470;47.324;8.548;2023-05-07T03:28:36;14.10;99.90
32811;DHT22;65470;47.324;8.548;2023-05-07T03:31:02;14.00;99.90
32811;DHT22;65470;47.324;8.548;2023-05-07T03:33:28;14.00;99.90
32811;DHT22;65470;47.324;8.548;2023-05-07T03:35:53;13.90;99.90
32811;DHT22;65470;47.324;8.548;2023-05-07T03:38:19;13.90;99.90
32811;DHT22;65470;47.324;8.548;2023-05-07T03:40:45;13.90;99.90
32811;DHT22;65470;47.324;8.548;2023-05-07T03:43:10;13.90;99.90
32811;DHT22;65470;47.324;8.548;2023-05-07T03:45:36;13.90;99.90
32811;DHT22;65470;47.324;8.548;2023-05-07T03:48:01;13.90;99.90
32811;DHT22;65470;47.324;8.548;2023-05-07T03:50:27;13.90;99.90
32811;DHT22;65470;47.324;8.548;2023-05-07T03:52:53;14.00;99.90
32811;DHT22;65470;47.324;8.548;2023-05-07T03:55:18;14.00;99.90
32811;DHT22;65470;47.324;8.548;2023-05-07T03:57:44;14.00;99.90
32811;DHT22;65470;47.324;8.548;2023-05-07T04:00:10;14.00;99.90
32811;DHT22;65470;47.324;8.548;2023-05-07T04:02:36;14.00;99.90
32811;DHT22;65470;47.324;8.548;2023-05-07T04:05:02;14.00;99.90
32811;DHT22;65470;47.324;8.548;2023-05-07T04:07:27;14.00;99.90
32811;DHT22;65470;47.324;8.548;2023-05-07T04:09:53;14.10;99.90
32811;DHT22;65470;47.324;8.548;2023-05-07T04:12:18;14.10;99.90
32811;DHT22;65470;47.324;8.548;2023-05-07T04:14:44;14.20;99.90
32811;DHT22;65470;47.324;8.548;2023-05-07T04:17:10;14.20;99.90
32811;DHT22;65470;47.324;8.548;2023-05-07T04:19:36;14.20;99.90
32811;DHT22;65470;47.324;8.548;2023-05-07T04:22:01;14.20;99.90
32811;DHT22;65470;47.324;8.548;2023-05-07T04:24:27;14.30;99.90
32811;DHT22;65470;47.324;8.548;2023-05-07T04:26:53;14.20;99.90
32811;DHT22;65470;47.324;8.548;2023-05-07T04:29:18;14.20;99.90
32811;DHT22;65470;47.324;8.548;2023-05-07T04:31:44;14.20;99.90
32811;DHT22;65470;47.324;8.548;2023-05-07T04:34:10;14.20;99.90
32811;DHT22;65470;47.324;8.548;2023-05-07T04:36:38;14.30;99.90
32811;DHT22;65470;47.324;8.548;2023-05-07T04:39:04;14.30;99.90
32811;DHT22;65470;47.324;8.548;2023-05-07T04:41:29;14.50;99.90
32811;DHT22;65470;47.324;8.548;2023-05-07T04:43:55;14.70;99.90
32811;DHT22;65470;47.324;8.548;2023-05-07T04:46:22;14.90;99.90
32811;DHT22;65470;47.324;8.548;2023-05-07T04:48:49;15.20;99.90
32811;DHT22;65470;47.324;8.548;2023-05-07T04:51:15;15.40;99.90
32811;DHT22;65470;47.324;8.548;2023-05-07T04:53:40;15.50;99.90
32811;DHT22;65470;47.324;8.548;2023-05-07T04:56:06;15.70;99.90
32811;DHT22;65470;47.324;8.548;2023-05-07T04:58:32;15.80;99.90
32811;DHT22;65470;47.324;8.548;2023-05-07T05:00:58;15.90;99.90
32811;DHT22;65470;47.324;8.548;2023-05-07T05:03:24;15.90;99.90
32811;DHT22;65470;47.324;8.548;2023-05-07T05:05:51;16.00;99.90
32811;DHT22;65470;47.324;8.548;2023-05-07T05:08:18;16.00;99.90
32811;DHT22;65470;47.324;8.548;2023-05-07T05:10:43;16.00;99.90
32811;DHT22;65470;47.324;8.548;2023-05-07T05:13:09;16.00;99.90
32811;DHT22;65470;47.324;8.548;2023-05-07T05:15:38;16.10;99.90
32811;DHT22;65470;47.324;8.548;2023-05-07T05:18:03;16.10;99.90
32811;DHT22;65470;47.324;8.548;2023-05-07T05:20:29;16.10;99.90
32811;DHT22;65470;47.324;8.548;2023-05-07T05:22:55;16.10;99.90
32811;DHT22;65470;47.324;8.548;2023-05-07T05:25:21;16.10;99.90
32811;DHT22;65470;47.324;8.548;2023-05-07T05:27:46;16.10;99.90
32811;DHT22;65470;47.324;8.548;2023-05-07T05:30:12;16.10;99.90
32811;DHT22;65470;47.324;8.548;2023-05-07T05:32:38;16.10;99.90
32811;DHT22;65470;47.324;8.548;2023-05-07T05:35:04;16.20;99.90
32811;DHT22;65470;47.324;8.548;2023-05-07T05:37:30;16.20;99.90
32811;DHT22;65470;47.324;8.548;2023-05-07T05:39:56;16.30;99.90
32811;DHT22;65470;47.324;8.548;2023-05-07T05:42:22;16.50;99.90
32811;DHT22;65470;47.324;8.548;2023-05-07T05:44:48;16.50;99.90
32811;DHT22;65470;47.324;8.548;2023-05-07T05:47:14;16.60;99.90
32811;DHT22;65470;47.324;8.548;2023-05-07T05:49:40;16.60;99.90
32811;DHT22;65470;47.324;8.548;2023-05-07T05:52:05;16.70;99.90
32811;DHT22;65470;47.324;8.548;2023-05-07T05:54:31;16.80;99.90
32811;DHT22;65470;47.324;8.548;2023-05-07T05:56:56;16.90;99.90
32811;DHT22;65470;47.324;8.548;2023-05-07T05:59:22;17.10;99.90
32811;DHT22;65470;47.324;8.548;2023-05-07T06:01:48;17.20;99.90
32811;DHT22;65470;47.324;8.548;2023-05-07T06:04:14;17.40;99.90
32811;DHT22;65470;47.324;8.548;2023-05-07T06:06:40;17.70;99.90
32811;DHT22;65470;47.324;8.548;2023-05-07T06:09:05;17.80;99.90
32811;DHT22;65470;47.324;8.548;2023-05-07T06:11:31;17.90;99.90
32811;DHT22;65470;47.324;8.548;2023-05-07T06:13:57;18.00;99.90
32811;DHT22;65470;47.324;8.548;2023-05-07T06:16:24;18.10;99.90
32811;DHT22;65470;47.324;8.548;2023-05-07T06:18:50;18.30;99.90
32811;DHT22;65470;47.324;8.548;2023-05-07T06:21:15;18.80;99.90
32811;DHT22;65470;47.324;8.548;2023-05-07T06:23:41;19.40;99.90
32811;DHT22;65470;47.324;8.548;2023-05-07T06:26:07;20.00;99.90
32811;DHT22;65470;47.324;8.548;2023-05-07T06:28:32;20.10;99.90
32811;DHT22;65470;47.324;8.548;2023-05-07T06:31:18;19.90;99.90
32811;DHT22;65470;47.324;8.548;2023-05-07T06:33:46;19.90;99.90
32811;DHT22;65470;47.324;8.548;2023-05-07T06:36:11;19.70;99.90
32811;DHT22;65470;47.324;8.548;2023-05-07T06:38:37;19.60;99.90
32811;DHT22;65470;47.324;8.548;2023-05-07T06:41:02;19.80;99.90
32811;DHT22;65470;47.324;8.548;2023-05-07T06:43:28;20.20;99.90
32811;DHT22;65470;47.324;8.548;2023-05-07T06:45:54;20.90;99.90
32811;DHT22;65470;47.324;8.548;2023-05-07T06:48:19;21.20;99.90
32811;DHT22;65470;47.324;8.548;2023-05-07T06:50:45;21.40;99.90
32811;DHT22;65470;47.324;8.548;2023-05-07T06:53:11;21.60;99.90
32811;DHT22;65470;47.324;8.548;2023-05-07T06:55:36;21.80;99.90
32811;DHT22;65470;47.324;8.548;2023-05-07T06:58:03;22.10;99.90
32811;DHT22;65470;47.324;8.548;2023-05-07T07:00:29;22.10;99.90
32811;DHT22;65470;47.324;8.548;2023-05-07T07:02:56;22.10;99.90
32811;DHT22;65470;47.324;8.548;2023-05-07T07:05:22;22.30;99.90
32811;DHT22;65470;47.324;8.548;2023-05-07T07:07:47;22.60;99.90
32811;DHT22;65470;47.324;8.548;2023-05-07T07:10:21;23.60;99.90
32811;DHT22;65470;47.324;8.548;2023-05-07T07:12:47;24.30;99.90
32811;DHT22;65470;47.324;8.548;2023-05-07T07:15:13;25.10;98.80
32811;DHT22;65470;47.324;8.548;2023-05-07T07:17:39;25.40;96.20
32811;DHT22;65470;47.324;8.548;2023-05-07T07:20:05;25.20;96.20
32811;DHT22;65470;47.324;8.548;2023-05-07T07:22:31;24.80;96.20
32811;DHT22;65470;47.324;8.548;2023-05-07T07:24:57;24.60;96.10
32811;DHT22;65470;47.324;8.548;2023-05-07T07:27:22;24.70;96.50
32811;DHT22;65470;47.324;8.548;2023-05-07T07:29:48;25.50;94.10
32811;DHT22;65470;47.324;8.548;2023-05-07T07:32:13;25.10;91.20
32811;DHT22;65470;47.324;8.548;2023-05-07T07:34:39;24.30;92.90
32811;DHT22;65470;47.324;8.548;2023-05-07T07:37:05;24.70;93.80
32811;DHT22;65470;47.324;8.548;2023-05-07T07:39:34;24.70;92.90
32811;DHT22;65470;47.324;8.548;2023-05-07T07:42:00;25.10;91.60
32811;DHT22;65470;47.324;8.548;2023-05-07T07:44:27;25.60;90.50
32811;DHT22;65470;47.324;8.548;2023-05-07T07:46:52;25.90;89.60
32811;DHT22;65470;47.324;8.548;2023-05-07T07:49:18;25.90;90.00
32811;DHT22;65470;47.324;8.548;2023-05-07T07:51:44;26.30;86.50
32811;DHT22;65470;47.324;8.548;2023-05-07T07:54:09;26.30;85.90
32811;DHT22;65470;47.324;8.548;2023-05-07T07:56:35;26.60;83.00
32811;DHT22;65470;47.324;8.548;2023-05-07T07:59:01;26.50;83.40
32811;DHT22;65470;47.324;8.548;2023-05-07T08:01:29;26.60;81.60
32811;DHT22;65470;47.324;8.548;2023-05-07T08:03:55;26.70;81.30
32811;DHT22;65470;47.324;8.548;2023-05-07T08:06:20;26.60;79.70
32811;DHT22;65470;47.324;8.548;2023-05-07T08:08:46;26.70;78.50
32811;DHT22;65470;47.324;8.548;2023-05-07T08:11:12;26.80;81.40
32811;DHT22;65470;47.324;8.548;2023-05-07T08:13:38;27.00;79.00
32811;DHT22;65470;47.324;8.548;2023-05-07T08:16:04;26.70;76.40
32811;DHT22;65470;47.324;8.548;2023-05-07T08:18:30;25.60;80.30
32811;DHT22;65470;47.324;8.548;2023-05-07T08:20:56;25.50;82.80
32811;DHT22;65470;47.324;8.548;2023-05-07T08:23:21;25.80;85.80
32811;DHT22;65470;47.324;8.548;2023-05-07T08:25:48;25.70;84.90
32811;DHT22;65470;47.324;8.548;2023-05-07T08:28:14;25.70;83.30
32811;DHT22;65470;47.324;8.548;2023-05-07T08:30:40;25.40;85.40
32811;DHT22;65470;47.324;8.548;2023-05-07T08:33:08;25.20;88.70
32811;DHT22;65470;47.324;8.548;2023-05-07T08:35:33;25.40;88.60
32811;DHT22;65470;47.324;8.548;2023-05-07T08:37:59;25.70;90.10
32811;DHT22;65470;47.324;8.548;2023-05-07T08:40:26;25.70;86.70
32811;DHT22;65470;47.324;8.548;2023-05-07T08:42:53;25.40;86.00
32811;DHT22;65470;47.324;8.548;2023-05-07T08:45:20;25.60;86.40
32811;DHT22;65470;47.324;8.548;2023-05-07T08:47:57;25.70;83.90
32811;DHT22;65470;47.324;8.548;2023-05-07T08:50:24;25.20;83.60
32811;DHT22;65470;47.324;8.548;2023-05-07T08:52:49;24.90;86.80
32811;DHT22;65470;47.324;8.548;2023-05-07T08:55:15;24.60;87.90
32811;DHT22;65470;47.324;8.548;2023-05-07T08:57:41;25.10;86.30
32811;DHT22;65470;47.324;8.548;2023-05-07T09:00:07;25.70;83.90
32811;DHT22;65470;47.324;8.548;2023-05-07T09:02:35;25.30;85.00
32811;DHT22;65470;47.324;8.548;2023-05-07T09:05:00;25.80;82.40
32811;DHT22;65470;47.324;8.548;2023-05-07T09:07:26;25.70;81.90
32811;DHT22;65470;47.324;8.548;2023-05-07T09:09:52;25.90;81.50
32811;DHT22;65470;47.324;8.548;2023-05-07T09:12:19;26.20;80.70
32811;DHT22;65470;47.324;8.548;2023-05-07T09:14:45;26.10;80.90
32811;DHT22;65470;47.324;8.548;2023-05-07T09:17:11;26.00;81.10
32811;DHT22;65470;47.324;8.548;2023-05-07T09:19:37;25.80;80.30
32811;DHT22;65470;47.324;8.548;2023-05-07T09:22:03;25.60;80.90
32811;DHT22;65470;47.324;8.548;2023-05-07T09:24:30;25.60;81.70
32811;DHT22;65470;47.324;8.548;2023-05-07T09:27:03;25.50;83.90
32811;DHT22;65470;47.324;8.548;2023-05-07T09:29:29;26.00;81.90
32811;DHT22;65470;47.324;8.548;2023-05-07T09:32:01;26.10;80.10
32811;DHT22;65470;47.324;8.548;2023-05-07T09:34:26;25.60;81.60
32811;DHT22;65470;47.324;8.548;2023-05-07T09:36:53;25.40;82.60
32811;DHT22;65470;47.324;8.548;2023-05-07T09:39:19;25.00;83.10
32811;DHT22;65470;47.324;8.548;2023-05-07T09:41:46;25.00;84.30
32811;DHT22;65470;47.324;8.548;2023-05-07T09:44:15;24.90;84.60
32811;DHT22;65470;47.324;8.548;2023-05-07T09:46:47;24.90;84.20
32811;DHT22;65470;47.324;8.548;2023-05-07T09:49:24;24.50;84.00
32811;DHT22;65470;47.324;8.548;2023-05-07T09:51:51;24.40;84.80
32811;DHT22;65470;47.324;8.548;2023-05-07T09:54:18;24.50;83.60
32811;DHT22;65470;47.324;8.548;2023-05-07T09:56:48;24.50;81.40
32811;DHT22;65470;47.324;8.548;2023-05-07T09:59:15;24.30;81.60
32811;DHT22;65470;47.324;8.548;2023-05-07T10:01:42;24.60;82.50
32811;DHT22;65470;47.324;8.548;2023-05-07T10:04:09;25.10;80.40
32811;DHT22;65470;47.324;8.548;2023-05-07T10:06:35;25.00;80.30
32811;DHT22;65470;47.324;8.548;2023-05-07T10:09:02;25.00;79.30
32811;DHT22;65470;47.324;8.548;2023-05-07T10:11:28;25.20;79.30
32811;DHT22;65470;47.324;8.548;2023-05-07T10:13:54;25.60;77.60
32811;DHT22;65470;47.324;8.548;2023-05-07T10:16:21;26.00;76.10
32811;DHT22;65470;47.324;8.548;2023-05-07T10:18:47;26.30;75.60
32811;DHT22;65470;47.324;8.548;2023-05-07T10:21:23;26.70;73.20
32811;DHT22;65470;47.324;8.548;2023-05-07T10:23:59;26.50;73.40
32811;DHT22;65470;47.324;8.548;2023-05-07T10:26:27;26.20;73.70
32811;DHT22;65470;47.324;8.548;2023-05-07T10:29:02;25.70;74.70
32811;DHT22;65470;47.324;8.548;2023-05-07T10:31:55;24.90;76.90
32811;DHT22;65470;47.324;8.548;2023-05-07T10:34:24;25.40;79.50
32811;DHT22;65470;47.324;8.548;2023-05-07T10:36:52;25.20;78.10
32811;DHT22;65470;47.324;8.548;2023-05-07T10:39:19;24.90;76.70
32811;DHT22;65470;47.324;8.548;2023-05-07T10:41:45;24.70;77.20
32811;DHT22;65470;47.324;8.548;2023-05-07T10:44:11;24.50;77.70
32811;DHT22;65470;47.324;8.548;2023-05-07T10:46:37;23.90;80.10
32811;DHT22;65470;47.324;8.548;2023-05-07T10:51:29;24.40;80.90
32811;DHT22;65470;47.324;8.548;2023-05-07T10:56:41;26.00;77.50
32811;DHT22;65470;47.324;8.548;2023-05-07T11:01:55;27.40;73.50
32811;DHT22;65470;47.324;8.548;2023-05-07T11:04:23;27.80;71.50
32811;DHT22;65470;47.324;8.548;2023-05-07T11:07:25;28.10;70.70
32811;DHT22;65470;47.324;8.548;2023-05-07T11:15:41;29.60;67.80
32811;DHT22;65470;47.324;8.548;2023-05-07T11:18:08;30.50;64.20
32811;DHT22;65470;47.324;8.548;2023-05-07T11:20:54;30.70;65.60
32811;DHT22;65470;47.324;8.548;2023-05-07T11:26:04;31.90;62.00
32811;DHT22;65470;47.324;8.548;2023-05-07T11:28:31;32.20;59.30
32811;DHT22;65470;47.324;8.548;2023-05-07T11:30:57;32.30;59.20
32811;DHT22;65470;47.324;8.548;2023-05-07T11:33:23;32.10;59.90
32811;DHT22;65470;47.324;8.548;2023-05-07T11:35:53;32.30;59.60
32811;DHT22;65470;47.324;8.548;2023-05-07T11:38:19;32.50;59.10
32811;DHT22;65470;47.324;8.548;2023-05-07T11:40:58;32.40;59.30
32811;DHT22;65470;47.324;8.548;2023-05-07T11:43:26;32.20;58.80
32811;DHT22;65470;47.324;8.548;2023-05-07T11:45:52;32.20;58.30
32811;DHT22;65470;47.324;8.548;2023-05-07T11:48:17;32.20;57.70
32811;DHT22;65470;47.324;8.548;2023-05-07T11:53:28;32.50;58.20
32811;DHT22;65470;47.324;8.548;2023-05-07T11:56:00;32.80;58.80
32811;DHT22;65470;47.324;8.548;2023-05-07T11:58:26;33.00;59.30
32811;DHT22;65470;47.324;8.548;2023-05-07T12:00:53;32.90;59.90
32811;DHT22;65470;47.324;8.548;2023-05-07T12:03:19;33.00;58.90
32811;DHT22;65470;47.324;8.548;2023-05-07T12:05:46;32.90;59.30
32811;DHT22;65470;47.324;8.548;2023-05-07T12:08:19;32.90;58.60
32811;DHT22;65470;47.324;8.548;2023-05-07T12:10:46;33.00;59.70
32811;DHT22;65470;47.324;8.548;2023-05-07T12:13:17;32.70;60.00
32811;DHT22;65470;47.324;8.548;2023-05-07T12:15:43;32.40;59.80
32811;DHT22;65470;47.324;8.548;2023-05-07T12:18:10;32.20;60.00
32811;DHT22;65470;47.324;8.548;2023-05-07T12:20:36;32.00;61.20
32811;DHT22;65470;47.324;8.548;2023-05-07T12:23:02;32.00;61.70
32811;DHT22;65470;47.324;8.548;2023-05-07T12:25:35;32.10;62.20
32811;DHT22;65470;47.324;8.548;2023-05-07T12:28:04;32.10;60.80
32811;DHT22;65470;47.324;8.548;2023-05-07T12:30:32;32.20;61.90
32811;DHT22;65470;47.324;8.548;2023-05-07T12:32:58;32.40;62.90
32811;DHT22;65470;47.324;8.548;2023-05-07T12:35:43;32.70;62.50
32811;DHT22;65470;47.324;8.548;2023-05-07T12:38:14;32.80;62.00
32811;DHT22;65470;47.324;8.548;2023-05-07T12:40:40;32.70;60.10
32811;DHT22;65470;47.324;8.548;2023-05-07T12:43:07;32.40;61.40
32811;DHT22;65470;47.324;8.548;2023-05-07T12:45:42;31.90;62.00
32811;DHT22;65470;47.324;8.548;2023-05-07T12:48:10;31.60;62.50
32811;DHT22;65470;47.324;8.548;2023-05-07T12:50:36;31.30;64.00
32811;DHT22;65470;47.324;8.548;2023-05-07T12:53:04;31.20;62.30
32811;DHT22;65470;47.324;8.548;2023-05-07T12:55:44;30.40;63.10
32811;DHT22;65470;47.324;8.548;2023-05-07T12:58:30;29.90;66.90
32811;DHT22;65470;47.324;8.548;2023-05-07T13:00:58;29.40;69.10
32811;DHT22;65470;47.324;8.548;2023-05-07T13:03:30;29.00;68.80
32811;DHT22;65470;47.324;8.548;2023-05-07T13:08:35;28.00;72.50
32811;DHT22;65470;47.324;8.548;2023-05-07T13:11:02;27.60;74.60
32811;DHT22;65470;47.324;8.548;2023-05-07T13:13:32;27.60;72.90
32811;DHT22;65470;47.324;8.548;2023-05-07T13:15:58;27.50;73.30
32811;DHT22;65470;47.324;8.548;2023-05-07T13:18:27;27.40;74.80
32811;DHT22;65470;47.324;8.548;2023-05-07T13:20:56;27.40;74.60
32811;DHT22;65470;47.324;8.548;2023-05-07T13:23:21;27.30;77.50
32811;DHT22;65470;47.324;8.548;2023-05-07T13:25:48;27.60;76.60
32811;DHT22;65470;47.324;8.548;2023-05-07T13:28:14;28.10;77.10
32811;DHT22;65470;47.324;8.548;2023-05-07T13:30:39;28.40;76.50
32811;DHT22;65470;47.324;8.548;2023-05-07T13:33:06;28.10;76.50
32811;DHT22;65470;47.324;8.548;2023-05-07T13:35:32;27.90;78.70
32811;DHT22;65470;47.324;8.548;2023-05-07T13:37:57;27.50;79.00
32811;DHT22;65470;47.324;8.548;2023-05-07T13:40:23;27.10;79.30
32811;DHT22;65470;47.324;8.548;2023-05-07T13:42:49;26.80;80.30
32811;DHT22;65470;47.324;8.548;2023-05-07T13:45:19;26.50;81.90
32811;DHT22;65470;47.324;8.548;2023-05-07T13:47:46;26.40;81.70
32811;DHT22;65470;47.324;8.548;2023-05-07T13:50:12;26.10;82.20
32811;DHT22;65470;47.324;8.548;2023-05-07T13:52:43;25.90;83.10
32811;DHT22;65470;47.324;8.548;2023-05-07T13:55:11;25.80;84.50
32811;DHT22;65470;47.324;8.548;2023-05-07T13:57:38;25.60;83.70
32811;DHT22;65470;47.324;8.548;2023-05-07T14:00:04;25.20;84.80
32811;DHT22;65470;47.324;8.548;2023-05-07T14:02:31;25.10;86.30
32811;DHT22;65470;47.324;8.548;2023-05-07T14:04:56;24.80;86.80
32811;DHT22;65470;47.324;8.548;2023-05-07T14:07:22;24.60;88.00
32811;DHT22;65470;47.324;8.548;2023-05-07T14:09:47;24.50;89.20
32811;DHT22;65470;47.324;8.548;2023-05-07T14:12:13;24.20;88.50
32811;DHT22;65470;47.324;8.548;2023-05-07T14:14:38;24.00;88.30
32811;DHT22;65470;47.324;8.548;2023-05-07T14:17:04;23.90;88.30
32811;DHT22;65470;47.324;8.548;2023-05-07T14:19:30;23.90;88.30
32811;DHT22;65470;47.324;8.548;2023-05-07T14:21:55;23.90;88.80
32811;DHT22;65470;47.324;8.548;2023-05-07T14:24:21;23.80;87.90
32811;DHT22;65470;47.324;8.548;2023-05-07T14:26:47;23.60;88.80
32811;DHT22;65470;47.324;8.548;2023-05-07T14:29:12;23.50;90.00
32811;DHT22;65470;47.324;8.548;2023-05-07T14:31:38;23.30;90.10
32811;DHT22;65470;47.324;8.548;2023-05-07T14:34:04;23.20;90.90
32811;DHT22;65470;47.324;8.548;2023-05-07T14:36:30;23.00;91.00
32811;DHT22;65470;47.324;8.548;2023-05-07T14:38:57;23.00;90.50
32811;DHT22;65470;47.324;8.548;2023-05-07T14:41:24;22.90;90.40
32811;DHT22;65470;47.324;8.548;2023-05-07T14:43:50;22.70;90.60
32811;DHT22;65470;47.324;8.548;2023-05-07T14:46:17;22.60;90.60
32811;DHT22;65470;47.324;8.548;2023-05-07T14:48:44;22.50;91.40
32811;DHT22;65470;47.324;8.548;2023-05-07T14:51:10;22.30;91.20
32811;DHT22;65470;47.324;8.548;2023-05-07T14:53:36;22.10;91.80
32811;DHT22;65470;47.324;8.548;2023-05-07T14:56:02;22.00;92.50
32811;DHT22;65470;47.324;8.548;2023-05-07T14:58:28;21.90;92.80
32811;DHT22;65470;47.324;8.548;2023-05-07T15:00:54;21.80;93.40
32811;DHT22;65470;47.324;8.548;2023-05-07T15:03:20;21.60;93.80
32811;DHT22;65470;47.324;8.548;2023-05-07T15:05:45;21.50;94.20
32811;DHT22;65470;47.324;8.548;2023-05-07T15:08:11;21.50;95.00
32811;DHT22;65470;47.324;8.548;2023-05-07T15:10:38;21.50;96.10
32811;DHT22;65470;47.324;8.548;2023-05-07T15:13:09;21.40;97.20
32811;DHT22;65470;47.324;8.548;2023-05-07T15:15:35;21.30;97.30
32811;DHT22;65470;47.324;8.548;2023-05-07T15:18:01;21.30;98.60
32811;DHT22;65470;47.324;8.548;2023-05-07T15:20:27;21.20;99.40
32811;DHT22;65470;47.324;8.548;2023-05-07T15:22:52;21.20;99.90
32811;DHT22;65470;47.324;8.548;2023-05-07T15:25:18;21.10;99.90
32811;DHT22;65470;47.324;8.548;2023-05-07T15:27:44;21.00;99.90
32811;DHT22;65470;47.324;8.548;2023-05-07T15:30:10;21.00;99.90
32811;DHT22;65470;47.324;8.548;2023-05-07T15:32:36;20.90;99.90
32811;DHT22;65470;47.324;8.548;2023-05-07T15:35:02;20.90;99.90
32811;DHT22;65470;47.324;8.548;2023-05-07T15:37:30;20.90;99.90
32811;DHT22;65470;47.324;8.548;2023-05-07T15:39:56;20.70;99.90
32811;DHT22;65470;47.324;8.548;2023-05-07T15:42:22;20.60;99.90
32811;DHT22;65470;47.324;8.548;2023-05-07T15:44:47;20.60;99.90
32811;DHT22;65470;47.324;8.548;2023-05-07T15:47:14;20.40;99.90
32811;DHT22;65470;47.324;8.548;2023-05-07T15:49:40;20.30;99.90
32811;DHT22;65470;47.324;8.548;2023-05-07T15:52:06;20.30;99.90